sensor_id;sensor_type;location;lat;lon;timestamp;P1;durP1;ratioP1;P2;durP2;ratioP2
71626;SDS011;59475;52.464;13.590;2022-10-16T00:02:05;5.00;;;4.27;;
71626;SDS011;59475;52.464;13.590;2022-10-16T00:04:31;5.23;;;3.70;;
71626;SDS011;59475;52.464;13.590;2022-10-16T00:06:56;5.53;;;3.60;;
71626;SDS011;59475;52.464;13.590;2022-10-16T00:09:21;4.20;;;3.67;;
71626;SDS011;59475;52.464;13.590;2022-10-16T00:11:47;4.53;;;3.70;;
71626;SDS011;59475;52.464;13.590;2022-10-16T00:14:13;3.80;;;3.43;;
71626;SDS011;59475;52.464;13.590;2022-10-16T00:16:39;4.07;;;3.17;;
71626;SDS011;59475;52.464;13.590;2022-10-16T00:19:05;5.07;;;3.33;;
71626;SDS011;59475;52.464;13.590;2022-10-16T00:21:31;3.95;;;3.55;;
71626;SDS011;59475;52.464;13.590;2022-10-16T00:23:58;4.37;;;3.47;;
71626;SDS011;59475;52.464;13.590;2022-10-16T00:26:31;3.75;;;3.28;;
71626;SDS011;59475;52.464;13.590;2022-10-16T00:28:57;5.47;;;3.33;;
71626;SDS011;59475;52.464;13.590;2022-10-16T00:31:23;4.60;;;3.57;;
71626;SDS011;59475;52.464;13.590;2022-10-16T00:33:48;3.73;;;3.40;;
71626;SDS011;59475;52.464;13.590;2022-10-16T00:36:15;5.38;;;3.38;;
71626;SDS011;59475;52.464;13.590;2022-10-16T00:38:42;3.15;;;2.85;;
71626;SDS011;59475;52.464;13.590;2022-10-16T00:41:09;3.70;;;3.30;;
71626;SDS011;59475;52.464;13.590;2022-10-16T00:43:41;3.38;;;3.08;;
71626;SDS011;59475;52.464;13.590;2022-10-16T00:46:21;3.67;;;3.17;;
71626;SDS011;59475;52.464;13.590;2022-10-16T00:48:52;3.43;;;3.00;;
71626;SDS011;59475;52.464;13.590;2022-10-16T00:51:19;7.28;;;3.30;;
71626;SDS011;59475;52.464;13.590;2022-10-16T00:53:48;3.72;;;3.35;;
71626;SDS011;59475;52.464;13.590;2022-10-16T00:56:14;3.22;;;2.92;;
71626;SDS011;59475;52.464;13.590;2022-10-16T00:58:40;5.50;;;2.93;;
71626;SDS011;59475;52.464;13.590;2022-10-16T01:01:05;3.07;;;2.77;;
71626;SDS011;59475;52.464;13.590;2022-10-16T01:03:32;5.43;;;2.90;;
71626;SDS011;59475;52.464;13.590;2022-10-16T01:08:45;4.82;;;2.70;;
71626;SDS011;59475;52.464;13.590;2022-10-16T01:11:24;3.10;;;2.80;;
71626;SDS011;59475;52.464;13.590;2022-10-16T01:14:08;2.58;;;2.38;;
71626;SDS011;59475;52.464;13.590;2022-10-16T01:16:42;3.10;;;2.67;;
71626;SDS011;59475;52.464;13.590;2022-10-16T01:21:57;2.50;;;2.30;;
71626;SDS011;59475;52.464;13.590;2022-10-16T01:24:33;3.15;;;2.80;;
71626;SDS011;59475;52.464;13.590;2022-10-16T01:37:32;3.63;;;2.90;;
71626;SDS011;59475;52.464;13.590;2022-10-16T01:40:02;3.75;;;2.85;;
71626;SDS011;59475;52.464;13.590;2022-10-16T01:42:34;3.40;;;3.10;;
71626;SDS011;59475;52.464;13.590;2022-10-16T01:45:04;3.37;;;2.80;;
71626;SDS011;59475;52.464;13.590;2022-10-16T01:47:32;3.92;;;2.58;;
71626;SDS011;59475;52.464;13.590;2022-10-16T01:50:00;3.35;;;2.80;;
71626;SDS011;59475;52.464;13.590;2022-10-16T01:52:30;4.45;;;2.80;;
71626;SDS011;59475;52.464;13.590;2022-10-16T01:54:59;3.03;;;2.72;;
71626;SDS011;59475;52.464;13.590;2022-10-16T01:57:27;3.23;;;2.80;;
71626;SDS011;59475;52.464;13.590;2022-10-16T01:59:55;4.43;;;2.65;;
71626;SDS011;59475;52.464;13.590;2022-10-16T02:02:23;2.90;;;2.60;;
71626;SDS011;59475;52.464;13.590;2022-10-16T02:04:54;2.72;;;2.45;;
71626;SDS011;59475;52.464;13.590;2022-10-16T02:07:26;3.50;;;2.90;;
71626;SDS011;59475;52.464;13.590;2022-10-16T02:09:52;4.07;;;2.90;;
71626;SDS011;59475;52.464;13.590;2022-10-16T02:12:27;3.53;;;2.80;;
71626;SDS011;59475;52.464;13.590;2022-10-16T02:14:55;3.60;;;2.80;;
71626;SDS011;59475;52.464;13.590;2022-10-16T02:17:21;3.60;;;2.67;;
71626;SDS011;59475;52.464;13.590;2022-10-16T02:19:47;2.95;;;2.38;;
71626;SDS011;59475;52.464;13.590;2022-10-16T02:22:47;4.40;;;2.75;;
71626;SDS011;59475;52.464;13.590;2022-10-16T02:25:10;4.30;;;3.13;;
71626;SDS011;59475;52.464;13.590;2022-10-16T02:30:28;3.33;;;2.63;;
71626;SDS011;59475;52.464;13.590;2022-10-16T02:32:58;2.60;;;2.33;;
71626;SDS011;59475;52.464;13.590;2022-10-16T02:35:26;3.00;;;2.58;;
71626;SDS011;59475;52.464;13.590;2022-10-16T02:37:53;3.88;;;2.90;;
71626;SDS011;59475;52.464;13.590;2022-10-16T02:40:20;3.37;;;2.60;;
71626;SDS011;59475;52.464;13.590;2022-10-16T02:42:49;3.10;;;2.75;;
71626;SDS011;59475;52.464;13.590;2022-10-16T02:45:18;2.95;;;2.70;;
71626;SDS011;59475;52.464;13.590;2022-10-16T02:47:44;3.87;;;2.60;;
71626;SDS011;59475;52.464;13.590;2022-10-16T02:50:09;2.97;;;2.67;;
71626;SDS011;59475;52.464;13.590;2022-10-16T02:52:35;2.50;;;2.20;;
71626;SDS011;59475;52.464;13.590;2022-10-16T02:55:00;2.80;;;2.50;;
71626;SDS011;59475;52.464;13.590;2022-10-16T02:57:25;2.47;;;2.27;;
71626;SDS011;59475;52.464;13.590;2022-10-16T02:59:51;4.27;;;2.90;;
71626;SDS011;59475;52.464;13.590;2022-10-16T03:02:17;3.28;;;2.42;;
71626;SDS011;59475;52.464;13.590;2022-10-16T03:04:42;2.33;;;2.13;;
71626;SDS011;59475;52.464;13.590;2022-10-16T03:07:07;4.93;;;2.60;;
71626;SDS011;59475;52.464;13.590;2022-10-16T03:09:33;3.83;;;2.67;;
71626;SDS011;59475;52.464;13.590;2022-10-16T03:11:58;3.20;;;2.90;;
71626;SDS011;59475;52.464;13.590;2022-10-16T03:14:24;2.67;;;2.40;;
71626;SDS011;59475;52.464;13.590;2022-10-16T03:16:49;2.50;;;2.03;;
71626;SDS011;59475;52.464;13.590;2022-10-16T03:19:16;4.13;;;2.40;;
71626;SDS011;59475;52.464;13.590;2022-10-16T03:21:42;3.33;;;2.55;;
71626;SDS011;59475;52.464;13.590;2022-10-16T03:24:08;4.63;;;2.60;;
71626;SDS011;59475;52.464;13.590;2022-10-16T03:26:33;4.80;;;2.77;;
71626;SDS011;59475;52.464;13.590;2022-10-16T03:28:58;3.75;;;2.40;;
71626;SDS011;59475;52.464;13.590;2022-10-16T03:31:24;2.53;;;2.33;;
71626;SDS011;59475;52.464;13.590;2022-10-16T03:33:49;2.60;;;2.40;;
71626;SDS011;59475;52.464;13.590;2022-10-16T03:36:14;2.90;;;2.30;;
71626;SDS011;59475;52.464;13.590;2022-10-16T03:38:40;3.80;;;2.50;;
71626;SDS011;59475;52.464;13.590;2022-10-16T03:41:05;2.67;;;2.47;;
71626;SDS011;59475;52.464;13.590;2022-10-16T03:43:32;2.50;;;2.30;;
71626;SDS011;59475;52.464;13.590;2022-10-16T03:45:57;2.93;;;2.40;;
71626;SDS011;59475;52.464;13.590;2022-10-16T03:48:23;4.82;;;2.28;;
71626;SDS011;59475;52.464;13.590;2022-10-16T03:50:48;3.63;;;2.50;;
71626;SDS011;59475;52.464;13.590;2022-10-16T03:53:15;3.95;;;2.40;;
71626;SDS011;59475;52.464;13.590;2022-10-16T03:55:41;3.63;;;2.77;;
71626;SDS011;59475;52.464;13.590;2022-10-16T03:58:07;4.20;;;2.78;;
71626;SDS011;59475;52.464;13.590;2022-10-16T04:00:32;2.83;;;2.23;;
71626;SDS011;59475;52.464;13.590;2022-10-16T04:02:57;3.20;;;2.67;;
71626;SDS011;59475;52.464;13.590;2022-10-16T04:05:23;3.00;;;2.70;;
71626;SDS011;59475;52.464;13.590;2022-10-16T04:07:49;3.00;;;2.50;;
71626;SDS011;59475;52.464;13.590;2022-10-16T04:10:14;4.03;;;2.60;;
71626;SDS011;59475;52.464;13.590;2022-10-16T04:12:39;3.10;;;2.43;;
71626;SDS011;59475;52.464;13.590;2022-10-16T04:15:05;3.53;;;2.67;;
71626;SDS011;59475;52.464;13.590;2022-10-16T04:17:30;2.95;;;2.65;;
71626;SDS011;59475;52.464;13.590;2022-10-16T04:19:55;3.87;;;2.40;;
71626;SDS011;59475;52.464;13.590;2022-10-16T04:22:21;3.87;;;2.50;;
71626;SDS011;59475;52.464;13.590;2022-10-16T04:24:46;3.37;;;2.50;;
71626;SDS011;59475;52.464;13.590;2022-10-16T04:27:11;4.43;;;2.50;;
71626;SDS011;59475;52.464;13.590;2022-10-16T04:29:37;3.00;;;2.70;;
71626;SDS011;59475;52.464;13.590;2022-10-16T04:32:02;2.67;;;2.27;;
71626;SDS011;59475;52.464;13.590;2022-10-16T04:34:27;2.87;;;2.50;;
71626;SDS011;59475;52.464;13.590;2022-10-16T04:36:53;3.03;;;2.60;;
71626;SDS011;59475;52.464;13.590;2022-10-16T04:39:18;2.63;;;2.40;;
71626;SDS011;59475;52.464;13.590;2022-10-16T04:41:43;3.43;;;2.87;;
71626;SDS011;59475;52.464;13.590;2022-10-16T04:44:09;3.17;;;2.87;;
71626;SDS011;59475;52.464;13.590;2022-10-16T04:46:34;2.87;;;2.67;;
71626;SDS011;59475;52.464;13.590;2022-10-16T04:48:59;3.73;;;2.70;;
71626;SDS011;59475;52.464;13.590;2022-10-16T04:51:25;5.10;;;2.47;;
71626;SDS011;59475;52.464;13.590;2022-10-16T04:53:51;3.13;;;2.70;;
71626;SDS011;59475;52.464;13.590;2022-10-16T04:56:16;2.80;;;2.60;;
71626;SDS011;59475;52.464;13.590;2022-10-16T04:58:42;2.45;;;2.25;;
71626;SDS011;59475;52.464;13.590;2022-10-16T05:01:07;3.23;;;2.40;;
71626;SDS011;59475;52.464;13.590;2022-10-16T05:03:32;2.60;;;2.40;;
71626;SDS011;59475;52.464;13.590;2022-10-16T05:05:58;3.27;;;2.40;;
71626;SDS011;59475;52.464;13.590;2022-10-16T05:08:23;4.00;;;2.80;;
71626;SDS011;59475;52.464;13.590;2022-10-16T05:10:48;3.45;;;2.65;;
71626;SDS011;59475;52.464;13.590;2022-10-16T05:13:14;4.00;;;3.07;;
71626;SDS011;59475;52.464;13.590;2022-10-16T05:15:39;3.27;;;2.37;;
71626;SDS011;59475;52.464;13.590;2022-10-16T05:18:05;3.27;;;2.83;;
71626;SDS011;59475;52.464;13.590;2022-10-16T05:20:30;3.10;;;2.63;;
71626;SDS011;59475;52.464;13.590;2022-10-16T05:22:55;2.85;;;2.58;;
71626;SDS011;59475;52.464;13.590;2022-10-16T05:25:21;4.87;;;2.87;;
71626;SDS011;59475;52.464;13.590;2022-10-16T05:27:49;3.10;;;2.80;;
71626;SDS011;59475;52.464;13.590;2022-10-16T05:30:15;3.78;;;2.78;;
71626;SDS011;59475;52.464;13.590;2022-10-16T05:32:41;5.57;;;2.80;;
71626;SDS011;59475;52.464;13.590;2022-10-16T05:35:11;3.72;;;3.03;;
71626;SDS011;59475;52.464;13.590;2022-10-16T05:37:36;3.47;;;2.80;;
71626;SDS011;59475;52.464;13.590;2022-10-16T05:40:02;3.67;;;2.90;;
71626;SDS011;59475;52.464;13.590;2022-10-16T05:42:28;3.80;;;3.05;;
71626;SDS011;59475;52.464;13.590;2022-10-16T05:44:54;3.20;;;2.90;;
71626;SDS011;59475;52.464;13.590;2022-10-16T05:47:19;3.40;;;3.10;;
71626;SDS011;59475;52.464;13.590;2022-10-16T05:49:45;3.28;;;2.72;;
71626;SDS011;59475;52.464;13.590;2022-10-16T05:52:11;4.10;;;3.07;;
71626;SDS011;59475;52.464;13.590;2022-10-16T05:54:36;4.22;;;3.00;;
71626;SDS011;59475;52.464;13.590;2022-10-16T05:57:01;4.27;;;2.63;;
71626;SDS011;59475;52.464;13.590;2022-10-16T05:59:27;3.40;;;3.00;;
71626;SDS011;59475;52.464;13.590;2022-10-16T06:01:52;3.23;;;2.63;;
71626;SDS011;59475;52.464;13.590;2022-10-16T06:04:18;4.50;;;2.60;;
71626;SDS011;59475;52.464;13.590;2022-10-16T06:06:43;4.07;;;3.17;;
71626;SDS011;59475;52.464;13.590;2022-10-16T06:09:09;3.27;;;2.97;;
71626;SDS011;59475;52.464;13.590;2022-10-16T06:11:34;2.80;;;2.53;;
71626;SDS011;59475;52.464;13.590;2022-10-16T06:14:01;3.13;;;2.70;;
71626;SDS011;59475;52.464;13.590;2022-10-16T06:16:31;2.65;;;2.45;;
71626;SDS011;59475;52.464;13.590;2022-10-16T06:18:57;4.78;;;2.60;;
71626;SDS011;59475;52.464;13.590;2022-10-16T06:21:24;4.00;;;2.53;;
71626;SDS011;59475;52.464;13.590;2022-10-16T06:23:50;3.00;;;2.50;;
71626;SDS011;59475;52.464;13.590;2022-10-16T06:26:18;3.58;;;2.40;;
71626;SDS011;59475;52.464;13.590;2022-10-16T06:28:45;3.15;;;2.70;;
71626;SDS011;59475;52.464;13.590;2022-10-16T06:31:11;3.03;;;2.53;;
71626;SDS011;59475;52.464;13.590;2022-10-16T06:33:38;3.55;;;2.40;;
71626;SDS011;59475;52.464;13.590;2022-10-16T06:36:08;3.30;;;2.70;;
71626;SDS011;59475;52.464;13.590;2022-10-16T06:38:35;5.93;;;2.65;;
71626;SDS011;59475;52.464;13.590;2022-10-16T06:41:02;3.30;;;2.38;;
71626;SDS011;59475;52.464;13.590;2022-10-16T06:43:28;2.30;;;2.10;;
71626;SDS011;59475;52.464;13.590;2022-10-16T06:45:58;4.75;;;2.03;;
71626;SDS011;59475;52.464;13.590;2022-10-16T06:48:24;4.50;;;2.00;;
71626;SDS011;59475;52.464;13.590;2022-10-16T06:53:26;2.67;;;2.22;;
71626;SDS011;59475;52.464;13.590;2022-10-16T06:55:53;3.28;;;2.55;;
71626;SDS011;59475;52.464;13.590;2022-10-16T06:58:19;2.63;;;2.40;;
71626;SDS011;59475;52.464;13.590;2022-10-16T07:00:44;2.70;;;2.50;;
71626;SDS011;59475;52.464;13.590;2022-10-16T07:03:10;2.93;;;2.63;;
71626;SDS011;59475;52.464;13.590;2022-10-16T07:05:38;2.73;;;2.10;;
71626;SDS011;59475;52.464;13.590;2022-10-16T07:08:04;2.60;;;2.25;;
71626;SDS011;59475;52.464;13.590;2022-10-16T07:10:30;2.85;;;1.98;;
71626;SDS011;59475;52.464;13.590;2022-10-16T07:12:56;3.43;;;2.20;;
71626;SDS011;59475;52.464;13.590;2022-10-16T07:15:21;3.38;;;2.70;;
71626;SDS011;59475;52.464;13.590;2022-10-16T07:17:47;2.80;;;2.60;;
71626;SDS011;59475;52.464;13.590;2022-10-16T07:20:12;3.40;;;2.30;;
71626;SDS011;59475;52.464;13.590;2022-10-16T07:22:37;4.37;;;2.40;;
71626;SDS011;59475;52.464;13.590;2022-10-16T07:25:03;2.90;;;2.40;;
71626;SDS011;59475;52.464;13.590;2022-10-16T07:27:28;2.88;;;2.20;;
71626;SDS011;59475;52.464;13.590;2022-10-16T07:29:54;5.00;;;2.20;;
71626;SDS011;59475;52.464;13.590;2022-10-16T07:32:19;2.60;;;2.40;;
71626;SDS011;59475;52.464;13.590;2022-10-16T07:34:44;2.23;;;1.97;;
71626;SDS011;59475;52.464;13.590;2022-10-16T07:37:10;4.53;;;1.92;;
71626;SDS011;59475;52.464;13.590;2022-10-16T07:39:36;2.97;;;1.93;;
71626;SDS011;59475;52.464;13.590;2022-10-16T07:42:01;2.30;;;1.97;;
71626;SDS011;59475;52.464;13.590;2022-10-16T07:44:27;2.72;;;2.00;;
71626;SDS011;59475;52.464;13.590;2022-10-16T07:46:52;2.60;;;2.40;;
71626;SDS011;59475;52.464;13.590;2022-10-16T07:49:17;2.20;;;1.90;;
71626;SDS011;59475;52.464;13.590;2022-10-16T07:51:43;2.77;;;1.90;;
71626;SDS011;59475;52.464;13.590;2022-10-16T07:54:09;2.47;;;1.83;;
71626;SDS011;59475;52.464;13.590;2022-10-16T07:56:35;3.33;;;1.55;;
71626;SDS011;59475;52.464;13.590;2022-10-16T07:59:00;3.20;;;1.70;;
71626;SDS011;59475;52.464;13.590;2022-10-16T08:01:25;2.30;;;1.77;;
71626;SDS011;59475;52.464;13.590;2022-10-16T08:03:52;16.23;;;2.17;;
71626;SDS011;59475;52.464;13.590;2022-10-16T08:06:18;1.67;;;1.50;;
71626;SDS011;59475;52.464;13.590;2022-10-16T08:08:46;2.92;;;1.88;;
71626;SDS011;59475;52.464;13.590;2022-10-16T08:11:12;4.22;;;1.27;;
71626;SDS011;59475;52.464;13.590;2022-10-16T08:13:39;3.83;;;1.60;;
71626;SDS011;59475;52.464;13.590;2022-10-16T08:16:04;1.60;;;1.50;;
71626;SDS011;59475;52.464;13.590;2022-10-16T08:18:40;4.95;;;1.50;;
71626;SDS011;59475;52.464;13.590;2022-10-16T08:21:06;3.80;;;1.90;;
71626;SDS011;59475;52.464;13.590;2022-10-16T08:23:33;4.70;;;1.70;;
71626;SDS011;59475;52.464;13.590;2022-10-16T08:26:02;2.72;;;1.75;;
71626;SDS011;59475;52.464;13.590;2022-10-16T08:28:30;2.65;;;1.60;;
71626;SDS011;59475;52.464;13.590;2022-10-16T08:30:55;2.57;;;1.77;;
71626;SDS011;59475;52.464;13.590;2022-10-16T08:33:21;1.75;;;1.60;;
71626;SDS011;59475;52.464;13.590;2022-10-16T08:35:53;2.57;;;1.70;;
71626;SDS011;59475;52.464;13.590;2022-10-16T08:38:19;2.63;;;1.92;;
71626;SDS011;59475;52.464;13.590;2022-10-16T08:40:45;2.15;;;1.95;;
71626;SDS011;59475;52.464;13.590;2022-10-16T08:48:47;1.90;;;1.40;;
71626;SDS011;59475;52.464;13.590;2022-10-16T08:51:19;3.00;;;1.70;;
71626;SDS011;59475;52.464;13.590;2022-10-16T08:53:59;4.30;;;1.58;;
71626;SDS011;59475;52.464;13.590;2022-10-16T08:56:27;4.88;;;1.80;;
71626;SDS011;59475;52.464;13.590;2022-10-16T08:58:53;2.10;;;1.60;;
71626;SDS011;59475;52.464;13.590;2022-10-16T09:01:19;3.33;;;1.40;;
71626;SDS011;59475;52.464;13.590;2022-10-16T09:06:52;2.00;;;1.80;;
71626;SDS011;59475;52.464;13.590;2022-10-16T09:11:53;2.83;;;1.77;;
71626;SDS011;59475;52.464;13.590;2022-10-16T09:23:00;4.10;;;1.63;;
71626;SDS011;59475;52.464;13.590;2022-10-16T09:25:37;2.25;;;1.45;;
71626;SDS011;59475;52.464;13.590;2022-10-16T09:28:04;1.98;;;1.35;;
71626;SDS011;59475;52.464;13.590;2022-10-16T09:30:29;1.20;;;1.10;;
71626;SDS011;59475;52.464;13.590;2022-10-16T09:32:55;1.40;;;1.30;;
71626;SDS011;59475;52.464;13.590;2022-10-16T09:35:26;1.70;;;1.60;;
71626;SDS011;59475;52.464;13.590;2022-10-16T09:38:02;1.98;;;1.52;;
71626;SDS011;59475;52.464;13.590;2022-10-16T09:43:02;1.70;;;1.35;;
71626;SDS011;59475;52.464;13.590;2022-10-16T09:45:36;1.30;;;1.20;;
71626;SDS011;59475;52.464;13.590;2022-10-16T09:48:10;2.83;;;1.40;;
71626;SDS011;59475;52.464;13.590;2022-10-16T09:50:37;1.90;;;1.47;;
71626;SDS011;59475;52.464;13.590;2022-10-16T09:53:13;1.75;;;1.20;;
71626;SDS011;59475;52.464;13.590;2022-10-16T09:55:49;2.58;;;1.10;;
71626;SDS011;59475;52.464;13.590;2022-10-16T09:58:15;1.42;;;1.33;;
71626;SDS011;59475;52.464;13.590;2022-10-16T10:00:41;2.80;;;1.50;;
71626;SDS011;59475;52.464;13.590;2022-10-16T10:03:15;1.40;;;1.30;;
71626;SDS011;59475;52.464;13.590;2022-10-16T10:05:57;4.28;;;1.45;;
71626;SDS011;59475;52.464;13.590;2022-10-16T10:08:32;1.20;;;1.10;;
71626;SDS011;59475;52.464;13.590;2022-10-16T10:10:57;2.90;;;1.67;;
71626;SDS011;59475;52.464;13.590;2022-10-16T10:13:24;3.20;;;1.67;;
71626;SDS011;59475;52.464;13.590;2022-10-16T10:15:50;2.20;;;2.00;;
71626;SDS011;59475;52.464;13.590;2022-10-16T10:18:17;3.47;;;2.20;;
71626;SDS011;59475;52.464;13.590;2022-10-16T10:20:44;1.52;;;1.25;;
71626;SDS011;59475;52.464;13.590;2022-10-16T10:23:23;2.53;;;1.33;;
71626;SDS011;59475;52.464;13.590;2022-10-16T10:33:52;1.48;;;1.23;;
71626;SDS011;59475;52.464;13.590;2022-10-16T10:39:01;1.70;;;1.17;;
71626;SDS011;59475;52.464;13.590;2022-10-16T10:56:07;1.80;;;1.40;;
71626;SDS011;59475;52.464;13.590;2022-10-16T11:01:41;1.85;;;1.75;;
71626;SDS011;59475;52.464;13.590;2022-10-16T11:07:00;1.73;;;1.00;;
71626;SDS011;59475;52.464;13.590;2022-10-16T11:09:33;3.83;;;1.20;;
71626;SDS011;59475;52.464;13.590;2022-10-16T11:12:09;1.48;;;1.08;;
71626;SDS011;59475;52.464;13.590;2022-10-16T11:14:55;1.70;;;1.20;;
71626;SDS011;59475;52.464;13.590;2022-10-16T11:17:30;2.60;;;1.20;;
71626;SDS011;59475;52.464;13.590;2022-10-16T11:20:21;1.80;;;1.20;;
71626;SDS011;59475;52.464;13.590;2022-10-16T11:25:22;2.85;;;1.30;;
71626;SDS011;59475;52.464;13.590;2022-10-16T11:27:52;2.88;;;1.08;;
71626;SDS011;59475;52.464;13.590;2022-10-16T11:31:17;1.67;;;1.13;;
71626;SDS011;59475;52.464;13.590;2022-10-16T11:36:23;2.17;;;1.23;;
71626;SDS011;59475;52.464;13.590;2022-10-16T11:41:18;1.27;;;1.00;;
71626;SDS011;59475;52.464;13.590;2022-10-16T11:46:37;2.00;;;1.20;;
71626;SDS011;59475;52.464;13.590;2022-10-16T11:49:14;1.23;;;1.05;;
71626;SDS011;59475;52.464;13.590;2022-10-16T11:51:45;2.90;;;1.07;;
71626;SDS011;59475;52.464;13.590;2022-10-16T11:56:54;2.30;;;1.10;;
71626;SDS011;59475;52.464;13.590;2022-10-16T12:03:21;1.17;;;1.08;;
71626;SDS011;59475;52.464;13.590;2022-10-16T12:05:25;1.43;;;0.90;;
71626;SDS011;59475;52.464;13.590;2022-10-16T12:08:02;1.42;;;1.10;;
71626;SDS011;59475;52.464;13.590;2022-10-16T12:10:32;1.63;;;1.30;;
71626;SDS011;59475;52.464;13.590;2022-10-16T12:13:02;1.83;;;0.88;;
71626;SDS011;59475;52.464;13.590;2022-10-16T12:15:29;2.20;;;1.35;;
71626;SDS011;59475;52.464;13.590;2022-10-16T12:17:57;1.00;;;0.90;;
71626;SDS011;59475;52.464;13.590;2022-10-16T12:20:30;2.13;;;1.20;;
71626;SDS011;59475;52.464;13.590;2022-10-16T12:22:58;1.43;;;1.20;;
71626;SDS011;59475;52.464;13.590;2022-10-16T12:25:33;2.72;;;1.10;;
71626;SDS011;59475;52.464;13.590;2022-10-16T12:28:00;1.23;;;1.10;;
71626;SDS011;59475;52.464;13.590;2022-10-16T12:30:32;1.30;;;0.90;;
71626;SDS011;59475;52.464;13.590;2022-10-16T12:33:01;1.65;;;1.10;;
71626;SDS011;59475;52.464;13.590;2022-10-16T12:35:30;1.20;;;0.90;;
71626;SDS011;59475;52.464;13.590;2022-10-16T12:38:05;1.10;;;1.00;;
71626;SDS011;59475;52.464;13.590;2022-10-16T12:40:34;1.30;;;0.90;;
71626;SDS011;59475;52.464;13.590;2022-10-16T12:45:45;2.67;;;1.20;;
71626;SDS011;59475;52.464;13.590;2022-10-16T12:48:21;2.10;;;1.07;;
71626;SDS011;59475;52.464;13.590;2022-10-16T12:50:47;1.20;;;1.08;;
71626;SDS011;59475;52.464;13.590;2022-10-16T12:53:23;1.05;;;0.93;;
71626;SDS011;59475;52.464;13.590;2022-10-16T13:09:38;1.55;;;1.20;;
71626;SDS011;59475;52.464;13.590;2022-10-16T13:15:04;1.52;;;0.88;;
71626;SDS011;59475;52.464;13.590;2022-10-16T13:28:52;1.93;;;0.83;;
71626;SDS011;59475;52.464;13.590;2022-10-16T13:31:21;1.23;;;0.83;;
71626;SDS011;59475;52.464;13.590;2022-10-16T13:33:52;1.13;;;0.90;;
71626;SDS011;59475;52.464;13.590;2022-10-16T13:36:33;0.90;;;0.80;;
71626;SDS011;59475;52.464;13.590;2022-10-16T13:39:14;1.17;;;0.80;;
71626;SDS011;59475;52.464;13.590;2022-10-16T13:41:45;1.83;;;0.93;;
71626;SDS011;59475;52.464;13.590;2022-10-16T13:44:12;2.93;;;0.93;;
71626;SDS011;59475;52.464;13.590;2022-10-16T13:46:43;1.23;;;0.95;;
71626;SDS011;59475;52.464;13.590;2022-10-16T13:49:13;1.80;;;0.90;;
71626;SDS011;59475;52.464;13.590;2022-10-16T13:51:40;1.55;;;0.90;;
71626;SDS011;59475;52.464;13.590;2022-10-16T13:54:07;1.50;;;1.10;;
71626;SDS011;59475;52.464;13.590;2022-10-16T13:56:35;1.25;;;1.15;;
71626;SDS011;59475;52.464;13.590;2022-10-16T13:59:04;2.10;;;0.90;;
71626;SDS011;59475;52.464;13.590;2022-10-16T14:01:47;1.85;;;1.10;;
71626;SDS011;59475;52.464;13.590;2022-10-16T14:04:14;3.33;;;1.00;;
71626;SDS011;59475;52.464;13.590;2022-10-16T14:06:40;1.40;;;1.08;;
71626;SDS011;59475;52.464;13.590;2022-10-16T14:09:08;1.92;;;1.30;;
71626;SDS011;59475;52.464;13.590;2022-10-16T14:11:44;2.50;;;1.65;;
71626;SDS011;59475;52.464;13.590;2022-10-16T14:14:14;2.40;;;1.53;;
71626;SDS011;59475;52.464;13.590;2022-10-16T14:16:40;3.25;;;1.38;;
71626;SDS011;59475;52.464;13.590;2022-10-16T14:19:27;2.45;;;1.20;;
71626;SDS011;59475;52.464;13.590;2022-10-16T14:21:54;1.40;;;1.30;;
71626;SDS011;59475;52.464;13.590;2022-10-16T14:24:24;1.95;;;1.30;;
71626;SDS011;59475;52.464;13.590;2022-10-16T14:26:57;3.93;;;1.40;;
71626;SDS011;59475;52.464;13.590;2022-10-16T14:29:24;2.83;;;1.20;;
71626;SDS011;59475;52.464;13.590;2022-10-16T14:31:54;1.73;;;1.00;;
71626;SDS011;59475;52.464;13.590;2022-10-16T14:34:25;2.10;;;1.03;;
71626;SDS011;59475;52.464;13.590;2022-10-16T14:36:52;1.13;;;1.02;;
71626;SDS011;59475;52.464;13.590;2022-10-16T14:39:19;1.40;;;0.98;;
71626;SDS011;59475;52.464;13.590;2022-10-16T14:41:50;2.30;;;1.10;;
71626;SDS011;59475;52.464;13.590;2022-10-16T14:44:26;5.85;;;1.02;;
71626;SDS011;59475;52.464;13.590;2022-10-16T14:46:54;4.33;;;1.20;;
71626;SDS011;59475;52.464;13.590;2022-10-16T14:49:20;1.77;;;0.98;;
71626;SDS011;59475;52.464;13.590;2022-10-16T14:51:48;1.10;;;0.93;;
71626;SDS011;59475;52.464;13.590;2022-10-16T14:54:16;1.48;;;1.10;;
71626;SDS011;59475;52.464;13.590;2022-10-16T15:01:45;1.23;;;1.13;;
71626;SDS011;59475;52.464;13.590;2022-10-16T15:04:12;1.50;;;0.85;;
71626;SDS011;59475;52.464;13.590;2022-10-16T15:06:38;1.65;;;1.00;;
71626;SDS011;59475;52.464;13.590;2022-10-16T15:09:03;3.00;;;1.20;;
71626;SDS011;59475;52.464;13.590;2022-10-16T15:11:28;1.70;;;1.20;;
71626;SDS011;59475;52.464;13.590;2022-10-16T15:13:57;1.70;;;1.43;;
71626;SDS011;59475;52.464;13.590;2022-10-16T15:16:22;5.23;;;1.70;;
71626;SDS011;59475;52.464;13.590;2022-10-16T15:18:48;3.73;;;1.60;;
71626;SDS011;59475;52.464;13.590;2022-10-16T15:21:21;2.60;;;1.70;;
71626;SDS011;59475;52.464;13.590;2022-10-16T15:23:50;2.70;;;1.80;;
71626;SDS011;59475;52.464;13.590;2022-10-16T15:26:15;2.20;;;1.80;;
71626;SDS011;59475;52.464;13.590;2022-10-16T15:28:41;2.53;;;1.93;;
71626;SDS011;59475;52.464;13.590;2022-10-16T15:31:06;1.73;;;1.60;;
71626;SDS011;59475;52.464;13.590;2022-10-16T15:33:31;2.25;;;1.67;;
71626;SDS011;59475;52.464;13.590;2022-10-16T15:35:59;1.83;;;1.33;;
71626;SDS011;59475;52.464;13.590;2022-10-16T15:38:25;1.80;;;1.25;;
71626;SDS011;59475;52.464;13.590;2022-10-16T15:40:52;1.55;;;1.10;;
71626;SDS011;59475;52.464;13.590;2022-10-16T15:43:17;1.60;;;1.40;;
71626;SDS011;59475;52.464;13.590;2022-10-16T15:45:43;1.77;;;1.20;;
71626;SDS011;59475;52.464;13.590;2022-10-16T15:48:10;2.30;;;1.27;;
71626;SDS011;59475;52.464;13.590;2022-10-16T15:50:37;1.95;;;1.13;;
71626;SDS011;59475;52.464;13.590;2022-10-16T15:53:03;1.50;;;1.30;;
71626;SDS011;59475;52.464;13.590;2022-10-16T15:55:28;1.97;;;1.10;;
71626;SDS011;59475;52.464;13.590;2022-10-16T15:57:54;2.38;;;1.00;;
71626;SDS011;59475;52.464;13.590;2022-10-16T16:00:20;1.47;;;1.20;;
71626;SDS011;59475;52.464;13.590;2022-10-16T16:02:50;1.73;;;1.38;;
71626;SDS011;59475;52.464;13.590;2022-10-16T16:05:17;3.10;;;1.30;;
71626;SDS011;59475;52.464;13.590;2022-10-16T16:07:44;3.87;;;1.77;;
71626;SDS011;59475;52.464;13.590;2022-10-16T16:10:10;6.13;;;3.50;;
71626;SDS011;59475;52.464;13.590;2022-10-16T16:12:36;3.58;;;1.98;;
71626;SDS011;59475;52.464;13.590;2022-10-16T16:15:06;4.90;;;1.77;;
71626;SDS011;59475;52.464;13.590;2022-10-16T16:17:33;2.05;;;1.70;;
71626;SDS011;59475;52.464;13.590;2022-10-16T16:19:59;2.27;;;1.30;;
71626;SDS011;59475;52.464;13.590;2022-10-16T16:22:25;3.38;;;1.73;;
71626;SDS011;59475;52.464;13.590;2022-10-16T16:24:50;1.83;;;1.67;;
71626;SDS011;59475;52.464;13.590;2022-10-16T16:27:16;3.10;;;1.40;;
71626;SDS011;59475;52.464;13.590;2022-10-16T16:29:41;1.85;;;1.42;;
71626;SDS011;59475;52.464;13.590;2022-10-16T16:32:07;3.03;;;1.93;;
71626;SDS011;59475;52.464;13.590;2022-10-16T16:34:32;3.33;;;1.90;;
71626;SDS011;59475;52.464;13.590;2022-10-16T16:36:57;2.33;;;2.00;;
71626;SDS011;59475;52.464;13.590;2022-10-16T16:39:23;4.57;;;1.77;;
71626;SDS011;59475;52.464;13.590;2022-10-16T16:41:48;3.75;;;2.15;;
71626;SDS011;59475;52.464;13.590;2022-10-16T16:44:15;3.75;;;2.25;;
71626;SDS011;59475;52.464;13.590;2022-10-16T16:46:40;6.85;;;2.38;;